Time;durP1;ratioP1;P1;durP2;ratioP2;P2;SDS_P1;SDS_P2;PMS_P1;PMS_P2;Temp;Humidity;BMP_temperature;BMP_pressure;BME280_temperature;BME280_humidity;BME280_pressure;Samples;Min_cycle;Max_cycle;Signal;HPM_P1;HPM_P2
2022/06/17 00:02:07;;;;;;;;;;;;;;;20.47;54.64;98987.72;4845423;29;20345;-84
2022/06/17 00:04:33;;;;;;;;;;;;;;;20.43;54.97;98980.16;4859668;29;20452;-84
2022/06/17 00:07:17;;;;;;;;;;;;;;;20.40;54.95;98975.97;4813906;29;19987;-85
2022/06/17 00:09:43;;;;;;;;;;;;;;;20.39;55.07;98979.72;4846705;29;20076;-90
2022/06/17 00:12:12;;;;;;;;;;;;;;;20.41;55.16;98974.91;4844840;29;20385;-89
2022/06/17 00:17:22;;;;;;;;;;;;;;;20.44;55.13;98973.69;4844314;29;19951;-89
2022/06/17 00:19:47;;;;;;;;;;;;;;;20.43;55.05;98974.72;4844562;29;20386;-88
2022/06/17 00:22:13;;;;;;;;;;;;;;;20.43;55.18;98969.31;4828765;29;20376;-89
2022/06/17 00:24:39;;;;;;;;;;;;;;;20.42;55.20;98968.44;4828824;29;20043;-88
2022/06/17 00:27:05;;;;;;;;;;;;;;;20.45;55.03;98965.34;4844055;29;20425;-90
2022/06/17 00:29:31;;;;;;;;;;;;;;;20.46;55.16;98964.31;4859517;29;19939;-90
2022/06/17 00:31:57;;;;;;;;;;;;;;;20.48;55.01;98967.66;4813607;29;20022;-89
2022/06/17 00:34:23;;;;;;;;;;;;;;;20.51;55.20;98966.47;4847201;29;19939;-89
2022/06/17 00:36:51;;;;;;;;;;;;;;;20.55;55.30;98968.59;4847212;29;19928;-89
2022/06/17 00:39:23;;;;;;;;;;;;;;;20.64;54.98;98976.59;4831815;29;19935;-89
2022/06/17 00:41:54;;;;;;;;;;;;;;;20.69;55.05;98979.59;4846919;29;20327;-89
2022/06/17 00:44:20;;;;;;;;;;;;;;;20.71;55.06;98972.06;4831349;29;20080;-89
2022/06/17 00:46:53;;;;;;;;;;;;;;;20.76;54.82;98965.03;4863854;29;19928;-89
2022/06/17 00:49:26;;;;;;;;;;;;;;;20.85;54.69;98974.69;4863058;29;19928;-89
2022/06/17 00:52:04;;;;;;;;;;;;;;;20.94;54.54;98967.22;4847114;29;19932;-90
2022/06/17 00:54:39;;;;;;;;;;;;;;;21.01;54.20;98972.69;4847392;29;19935;-90
2022/06/17 00:57:23;;;;;;;;;;;;;;;21.03;54.26;98982.34;4816696;29;19982;-89
2022/06/17 01:00:10;;;;;;;;;;;;;;;21.02;53.96;98986.06;4832196;29;20011;-89
2022/06/17 01:02:40;;;;;;;;;;;;;;;20.98;54.16;98978.53;4817109;29;20292;-90
2022/06/17 01:05:06;;;;;;;;;;;;;;;20.98;54.37;98979.34;4846714;29;19981;-90
2022/06/17 01:07:36;;;;;;;;;;;;;;;20.95;54.48;98973.47;4846527;29;20412;-89
2022/06/17 01:10:08;;;;;;;;;;;;;;;20.98;54.34;98973.94;4816408;29;19932;-88
2022/06/17 01:12:47;;;;;;;;;;;;;;;21.00;54.52;98974.59;4831364;29;19935;-89
2022/06/17 01:15:15;;;;;;;;;;;;;;;21.04;54.31;98981.28;4862873;29;19973;-89
2022/06/17 01:17:40;;;;;;;;;;;;;;;20.76;55.77;99032.06;4830999;29;20289;-89
2022/06/17 01:20:10;;;;;;;;;;;;;;;20.35;56.44;98983.84;4845943;29;20300;-88
2022/06/17 01:22:43;;;;;;;;;;;;;;;20.47;56.52;99001.28;4816153;29;19935;-89
2022/06/17 01:25:13;;;;;;;;;;;;;;;20.57;56.44;98999.13;4846253;29;20118;-80
2022/06/17 01:27:44;;;;;;;;;;;;;;;20.64;56.80;99007.31;4830639;29;19928;-81
2022/06/17 01:30:18;;;;;;;;;;;;;;;20.81;56.30;99007.88;4845841;29;20396;-82
2022/06/17 01:32:48;;;;;;;;;;;;;;;20.83;56.20;99008.50;4830289;29;20388;-81
2022/06/17 01:35:13;;;;;;;;;;;;;;;21.05;55.74;99007.41;4862100;29;19932;-81
2022/06/17 01:37:39;;;;;;;;;;;;;;;21.09;55.46;99003.25;4845761;29;19928;-82
2022/06/17 01:40:06;;;;;;;;;;;;;;;21.25;55.15;99004.00;4845818;29;20056;-82
2022/06/17 01:42:33;;;;;;;;;;;;;;;21.26;54.89;99003.81;4830488;29;19932;-80
2022/06/17 01:44:59;;;;;;;;;;;;;;;21.45;54.32;99007.72;4830473;29;19928;-79
2022/06/17 01:47:26;;;;;;;;;;;;;;;21.65;54.29;99012.41;4861234;29;19928;-80
2022/06/17 01:50:01;;;;;;;;;;;;;;;21.82;53.93;99013.75;4830205;29;20026;-81
2022/06/17 01:52:28;;;;;;;;;;;;;;;21.97;53.02;99010.88;4846064;29;19928;-81
2022/06/17 01:55:03;;;;;;;;;;;;;;;22.06;52.94;99017.81;4815197;29;19928;-81
2022/06/17 01:57:35;;;;;;;;;;;;;;;22.10;52.98;99008.19;4845672;29;19928;-82
2022/06/17 02:00:07;;;;;;;;;;;;;;;22.17;52.59;99013.69;4830838;29;19938;-82
2022/06/17 02:02:41;;;;;;;;;;;;;;;22.08;52.70;99010.28;4846139;29;19928;-82
2022/06/17 02:05:09;;;;;;;;;;;;;;;22.10;52.32;99000.00;4861790;29;20417;-81
2022/06/17 02:07:36;;;;;;;;;;;;;;;22.22;52.19;99008.44;4845279;29;19935;-82
2022/06/17 02:10:02;;;;;;;;;;;;;;;22.44;52.06;99003.69;4844776;29;19928;-82
2022/06/17 02:12:30;;;;;;;;;;;;;;;22.53;51.81;99005.16;4814979;29;19927;-83
2022/06/17 02:15:01;;;;;;;;;;;;;;;22.64;51.80;99000.97;4816078;29;19932;-83
2022/06/17 02:17:42;;;;;;;;;;;;;;;22.78;51.47;99002.66;4846670;29;20379;-83
2022/06/17 02:20:26;;;;;;;;;;;;;;;22.97;51.39;99003.72;4821729;29;19935;-84
2022/06/17 02:22:53;;;;;;;;;;;;;;;23.03;51.41;99000.16;4865101;29;19928;-78
2022/06/17 02:25:25;;;;;;;;;;;;;;;23.01;51.67;98997.63;4845013;29;20353;-84
2022/06/17 02:27:53;;;;;;;;;;;;;;;22.93;51.93;99000.56;4845331;29;20031;-83
2022/06/17 02:30:24;;;;;;;;;;;;;;;22.86;52.13;98993.41;4830191;29;20056;-83
2022/06/17 02:32:51;;;;;;;;;;;;;;;22.94;52.58;98990.50;4844443;29;20304;-82
2022/06/17 02:35:35;;;;;;;;;;;;;;;23.07;52.28;98992.41;4843898;29;20014;-81
2022/06/17 02:38:01;;;;;;;;;;;;;;;23.19;52.06;98991.53;4814446;29;20404;-80
2022/06/17 02:40:27;;;;;;;;;;;;;;;23.22;51.95;98993.00;4829294;29;19935;-82
2022/06/17 02:42:53;;;;;;;;;;;;;;;23.22;51.63;98998.44;4813645;29;20023;-80
2022/06/17 02:45:22;;;;;;;;;;;;;;;23.17;51.52;99000.94;4844405;29;19948;-79
2022/06/17 02:47:48;;;;;;;;;;;;;;;23.14;51.45;99012.31;4829218;29;19928;-79
2022/06/17 02:50:17;;;;;;;;;;;;;;;23.06;51.69;99026.16;4829202;29;20007;-79
2022/06/17 02:52:43;;;;;;;;;;;;;;;22.85;51.95;99017.09;4829247;29;19928;-80
2022/06/17 02:55:16;;;;;;;;;;;;;;;22.81;52.27;99010.41;4844285;29;19935;-80
2022/06/17 02:57:45;;;;;;;;;;;;;;;22.79;52.76;99010.63;4829287;29;20388;-78
2022/06/17 03:00:17;;;;;;;;;;;;;;;22.78;52.94;99010.81;4814173;29;19985;-79
2022/06/17 03:02:47;;;;;;;;;;;;;;;22.77;53.03;99000.97;4844419;29;19928;-79
2022/06/17 03:05:22;;;;;;;;;;;;;;;22.74;53.15;99006.84;4829274;29;20393;-78
2022/06/17 03:07:49;;;;;;;;;;;;;;;22.75;53.29;98992.16;4813894;29;19927;-78
2022/06/17 03:10:23;;;;;;;;;;;;;;;22.77;53.21;98990.91;4829027;29;19956;-79
2022/06/17 03:12:53;;;;;;;;;;;;;;;22.81;53.50;98988.59;4828767;29;20018;-84
2022/06/17 03:15:20;;;;;;;;;;;;;;;22.81;52.99;98980.44;4829148;29;20027;-80
2022/06/17 03:17:46;;;;;;;;;;;;;;;22.85;52.66;98986.28;4829354;29;20413;-79
2022/06/17 03:20:24;;;;;;;;;;;;;;;22.90;52.58;98984.59;4844225;29;20031;-84
2022/06/17 03:22:55;;;;;;;;;;;;;;;22.97;52.41;98990.91;4844151;29;20074;-82
2022/06/17 03:25:25;;;;;;;;;;;;;;;23.01;52.55;98996.78;4829651;29;20012;-81
2022/06/17 03:27:54;;;;;;;;;;;;;;;23.02;52.53;98993.88;4829053;29;19939;-79
2022/06/17 03:30:28;;;;;;;;;;;;;;;22.87;52.69;99004.13;4829285;29;19951;-83
2022/06/17 03:33:06;;;;;;;;;;;;;;;22.93;52.61;99003.28;4843894;29;19932;-87
2022/06/17 03:35:35;;;;;;;;;;;;;;;23.02;52.75;98993.88;4844165;29;20401;-86
2022/06/17 03:38:04;;;;;;;;;;;;;;;23.11;52.47;98990.91;4828653;29;20055;-78
2022/06/17 03:40:35;;;;;;;;;;;;;;;22.76;53.28;98999.31;4813413;29;19938;-77
2022/06/17 03:43:24;;;;;;;;;;;;;;;22.68;53.42;98997.63;4859143;29;19932;-80
2022/06/17 03:46:02;;;;;;;;;;;;;;;22.33;53.98;99001.56;4812142;29;19935;-79
2022/06/17 03:48:28;;;;;;;;;;;;;;;22.23;54.28;98991.94;4813652;29;19964;-78
2022/06/17 03:50:54;;;;;;;;;;;;;;;22.54;54.05;98988.59;4813504;29;20285;-79
2022/06/17 03:53:25;;;;;;;;;;;;;;;22.91;53.32;98991.78;4843956;29;20391;-84
2022/06/17 03:55:53;;;;;;;;;;;;;;;23.20;52.89;98990.47;4847093;29;20404;-80
2022/06/17 03:58:20;;;;;;;;;;;;;;;23.42;52.46;99001.94;4831869;29;19935;-84
2022/06/17 04:00:58;;;;;;;;;;;;;;;23.59;51.68;99004.22;4818401;29;19927;-80
2022/06/17 04:03:25;;;;;;;;;;;;;;;23.79;51.28;98998.72;4866105;29;20369;-86
2022/06/17 04:05:55;;;;;;;;;;;;;;;23.95;51.01;98999.03;4831989;29;19928;-86
2022/06/17 04:08:20;;;;;;;;;;;;;;;24.06;50.38;98988.50;4816772;29;19928;-85
2022/06/17 04:10:46;;;;;;;;;;;;;;;24.05;50.33;98992.28;4847202;29;20398;-83
2022/06/17 04:13:15;;;;;;;;;;;;;;;24.14;50.30;98999.16;4832614;29;19928;-85
2022/06/17 04:16:05;;;;;;;;;;;;;;;24.31;49.91;99000.34;4867532;29;19971;-83
2022/06/17 04:18:36;;;;;;;;;;;;;;;24.39;49.97;98999.25;4847205;29;19928;-84
2022/06/17 04:21:02;;;;;;;;;;;;;;;24.49;49.91;99004.25;4847473;29;19948;-89
2022/06/17 04:23:31;;;;;;;;;;;;;;;24.76;49.18;98989.31;4847074;29;19928;-83
2022/06/17 04:26:06;;;;;;;;;;;;;;;24.90;49.41;98990.88;4846786;29;19928;-78
2022/06/17 04:28:43;;;;;;;;;;;;;;;25.24;48.36;98985.94;4862475;29;19944;-87
2022/06/17 04:31:13;;;;;;;;;;;;;;;25.48;48.14;98986.13;4847471;29;20388;-86
2022/06/17 04:33:42;;;;;;;;;;;;;;;25.50;47.58;98983.97;4862200;29;20487;-86
2022/06/17 04:36:14;;;;;;;;;;;;;;;25.72;47.26;98981.59;4863809;29;19928;-91
2022/06/17 04:38:58;;;;;;;;;;;;;;;26.04;46.47;98985.03;4862673;29;19935;-88
2022/06/17 04:41:39;;;;;;;;;;;;;;;26.14;45.17;98996.25;4862812;29;19928;-84
2022/06/17 04:44:12;;;;;;;;;;;;;;;26.20;45.07;98989.84;4847481;29;19935;-85
2022/06/17 04:46:43;;;;;;;;;;;;;;;26.00;44.19;98983.81;4831251;29;19928;-87
2022/06/17 04:49:21;;;;;;;;;;;;;;;25.96;44.40;98982.59;4846532;29;19935;-89
2022/06/17 04:51:48;;;;;;;;;;;;;;;25.98;44.38;98983.19;4846458;29;19983;-81
2022/06/17 04:54:14;;;;;;;;;;;;;;;26.00;44.39;98978.34;4831684;29;19984;-84
2022/06/17 04:57:03;;;;;;;;;;;;;;;26.04;44.00;98968.59;4822131;29;19928;-85
2022/06/17 04:59:45;;;;;;;;;;;;;;;26.02;44.20;98977.00;4862264;29;19963;-83
2022/06/17 05:02:13;;;;;;;;;;;;;;;25.95;43.97;98975.44;4848292;29;19956;-83
2022/06/17 05:04:46;;;;;;;;;;;;;;;25.89;43.85;98977.22;4847415;29;19935;-83
2022/06/17 05:07:15;;;;;;;;;;;;;;;25.75;44.53;98971.03;4845668;29;19932;-88
2022/06/17 05:09:43;;;;;;;;;;;;;;;25.58;44.53;98970.00;4831273;29;20296;-85
2022/06/17 05:12:23;;;;;;;;;;;;;;;25.69;44.67;98974.72;4846368;29;19936;-93
2022/06/17 05:14:52;;;;;;;;;;;;;;;25.83;44.53;98965.25;4845777;29;20022;-90
2022/06/17 05:17:19;;;;;;;;;;;;;;;25.92;44.46;98958.41;4845918;29;19928;-86
2022/06/17 05:19:49;;;;;;;;;;;;;;;25.75;44.83;98956.50;4846243;29;19928;-83
2022/06/17 05:22:27;;;;;;;;;;;;;;;25.75;44.79;98954.59;4830891;29;19939;-88
2022/06/17 05:24:54;;;;;;;;;;;;;;;25.87;44.84;98946.47;4854308;29;19932;-85
2022/06/17 05:27:19;;;;;;;;;;;;;;;26.02;44.55;98946.06;4866951;29;19928;-83
2022/06/17 05:29:45;;;;;;;;;;;;;;;26.00;44.99;98940.00;4862088;29;19928;-85
2022/06/17 05:32:12;;;;;;;;;;;;;;;26.18;44.88;98942.69;4846075;29;20390;-86
2022/06/17 05:34:40;;;;;;;;;;;;;;;26.39;44.58;98933.88;4830583;29;19932;-87
2022/06/17 05:37:06;;;;;;;;;;;;;;;26.54;44.08;98935.38;4861921;29;19976;-91
2022/06/17 05:39:34;;;;;;;;;;;;;;;26.68;44.05;98931.34;4846040;29;19943;-85
2022/06/17 05:42:00;;;;;;;;;;;;;;;26.82;43.17;98937.44;4845893;29;19932;-85
2022/06/17 05:44:26;;;;;;;;;;;;;;;26.84;43.27;98916.91;4846161;29;20016;-91
2022/06/17 05:47:06;;;;;;;;;;;;;;;26.52;43.47;98921.09;4845776;29;19948;-87
2022/06/17 05:49:55;;;;;;;;;;;;;;;26.64;43.32;98924.69;4845687;29;19991;-85
2022/06/17 05:53:05;;;;;;;;;;;;;;;26.82;43.32;98915.50;4830640;29;19974;-88
2022/06/17 05:55:36;;;;;;;;;;;;;;;27.06;43.33;98917.16;4845993;29;20410;-87
2022/06/17 05:58:03;;;;;;;;;;;;;;;27.22;43.43;98918.34;4841508;29;20018;-89
2022/06/17 06:00:30;;;;;;;;;;;;;;;27.30;43.21;98912.47;4841603;29;19928;-85
2022/06/17 06:02:56;;;;;;;;;;;;;;;27.43;42.56;98911.41;4841813;29;20412;-87
2022/06/17 06:05:28;;;;;;;;;;;;;;;27.53;42.71;98908.88;4811047;29;20388;-88
2022/06/17 06:07:55;;;;;;;;;;;;;;;27.62;42.22;98914.78;4841455;29;20010;-86
2022/06/17 06:10:22;;;;;;;;;;;;;;;27.66;41.91;98910.47;4826463;29;19983;-87
2022/06/17 06:12:53;;;;;;;;;;;;;;;27.79;42.30;98912.13;4810869;29;19932;-85
2022/06/17 06:15:22;;;;;;;;;;;;;;;28.01;42.12;98912.28;4841438;29;20422;-89
2022/06/17 06:18:12;;;;;;;;;;;;;;;28.24;41.65;98911.31;4843218;29;19928;-85
2022/06/17 06:20:40;;;;;;;;;;;;;;;28.31;41.42;98917.47;4841218;29;19935;-88
2022/06/17 06:23:06;;;;;;;;;;;;;;;28.47;40.74;98913.97;4841222;29;20336;-88
2022/06/17 06:25:32;;;;;;;;;;;;;;;28.62;40.68;98905.09;4841353;29;19940;-87
2022/06/17 06:27:58;;;;;;;;;;;;;;;28.83;39.46;98902.69;4842357;29;19944;-86
2022/06/17 06:30:26;;;;;;;;;;;;;;;28.76;39.83;98898.16;4844673;29;20292;-87
2022/06/17 06:32:54;;;;;;;;;;;;;;;28.88;38.19;98897.22;4844948;29;20455;-88
2022/06/17 06:35:21;;;;;;;;;;;;;;;28.89;38.05;98908.00;4844642;29;19939;-83
2022/06/17 06:37:47;;;;;;;;;;;;;;;28.86;38.99;98908.50;4862283;29;19928;-86
2022/06/17 06:40:13;;;;;;;;;;;;;;;29.02;38.99;98895.81;4844873;29;19935;-85
2022/06/17 06:42:39;;;;;;;;;;;;;;;29.17;38.38;98896.03;4846436;29;19984;-91
2022/06/17 06:45:25;;;;;;;;;;;;;;;29.28;37.42;98892.31;4861645;29;19928;-83
2022/06/17 06:47:53;;;;;;;;;;;;;;;29.42;37.68;98889.19;4845067;29;19932;-86
2022/06/17 06:50:24;;;;;;;;;;;;;;;29.46;35.75;98890.34;4845874;29;19928;-84
2022/06/17 06:52:53;;;;;;;;;;;;;;;29.39;36.18;98885.03;4845317;29;19932;-84
2022/06/17 06:55:19;;;;;;;;;;;;;;;29.51;36.44;98882.13;4829566;29;19932;-83
2022/06/17 06:57:46;;;;;;;;;;;;;;;29.46;36.53;98888.44;4844670;29;19932;-84
2022/06/17 07:00:13;;;;;;;;;;;;;;;29.58;36.40;98881.97;4844535;29;19963;-83
2022/06/17 07:02:40;;;;;;;;;;;;;;;29.57;36.55;98874.78;4859929;29;19928;-84
2022/06/17 07:05:06;;;;;;;;;;;;;;;29.81;36.35;98886.38;4845251;29;19935;-85
2022/06/17 07:07:32;;;;;;;;;;;;;;;29.85;36.23;98877.31;4862287;29;19928;-87
2022/06/17 07:09:58;;;;;;;;;;;;;;;29.98;36.17;98887.94;4863173;29;19928;-86
2022/06/17 07:12:24;;;;;;;;;;;;;;;30.00;36.00;98879.41;4863107;29;20040;-85
2022/06/17 07:14:49;;;;;;;;;;;;;;;29.85;35.83;98882.81;4880060;29;19934;-86
2022/06/17 07:17:15;;;;;;;;;;;;;;;29.88;34.75;98876.81;4864067;29;20022;-84
2022/06/17 07:19:41;;;;;;;;;;;;;;;29.91;35.14;98878.22;4879917;29;20297;-84
2022/06/17 07:22:06;;;;;;;;;;;;;;;29.86;35.61;98873.47;4879444;29;19928;-85
2022/06/17 07:24:32;;;;;;;;;;;;;;;29.91;35.93;98872.69;4847730;29;19995;-82
2022/06/17 07:26:57;;;;;;;;;;;;;;;29.90;35.89;98879.28;4849339;29;19934;-82
2022/06/17 07:29:23;;;;;;;;;;;;;;;30.22;35.77;98874.69;4864336;29;20333;-82
2022/06/17 07:31:49;;;;;;;;;;;;;;;30.19;35.03;98871.59;4866676;29;19935;-83
2022/06/17 07:34:14;;;;;;;;;;;;;;;30.43;34.98;98866.59;4852122;29;19957;-83
2022/06/17 07:42:09;;;;;;;;;;;;;;;30.66;34.52;98860.69;4853639;29;19928;-88
2022/06/17 07:44:36;;;;;;;;;;;;;;;30.69;35.51;98865.69;4853909;29;20303;-90
2022/06/17 07:47:03;;;;;;;;;;;;;;;30.86;35.68;98856.41;4873568;29;19938;-83
2022/06/17 07:49:29;;;;;;;;;;;;;;;31.01;35.86;98855.66;4877392;29;19931;-88
2022/06/17 07:51:55;;;;;;;;;;;;;;;31.18;35.67;98859.91;4875523;29;20040;-89
2022/06/17 07:54:20;;;;;;;;;;;;;;;31.18;35.54;98850.78;4883769;29;20344;-82
2022/06/17 07:56:46;;;;;;;;;;;;;;;31.15;34.91;98837.53;4867362;29;20360;-86
2022/06/17 07:59:12;;;;;;;;;;;;;;;31.15;34.63;98838.34;4850645;29;19928;-83
2022/06/17 08:01:38;;;;;;;;;;;;;;;31.42;32.33;98837.38;4851274;29;19986;-79
2022/06/17 08:08:04;;;;;;;;;;;;;;;31.23;30.39;98833.41;4882184;29;19931;-83
2022/06/17 08:10:31;;;;;;;;;;;;;;;31.29;31.21;98832.31;4850305;29;19975;-85
2022/06/17 08:12:57;;;;;;;;;;;;;;;31.50;32.48;98831.31;4885055;29;19935;-88
2022/06/17 08:15:23;;;;;;;;;;;;;;;31.90;31.24;98832.56;4852347;29;19928;-91
2022/06/17 08:17:49;;;;;;;;;;;;;;;31.90;31.01;98829.78;4867850;29;20022;-87
2022/06/17 08:20:26;;;;;;;;;;;;;;;32.02;29.22;98824.00;4854298;29;19935;-90
2022/06/17 08:22:52;;;;;;;;;;;;;;;32.11;29.14;98820.38;4853183;29;20018;-89
2022/06/17 08:25:18;;;;;;;;;;;;;;;32.05;28.65;98824.28;4889758;29;19962;-93
2022/06/17 08:27:46;;;;;;;;;;;;;;;32.15;28.44;98832.53;4859771;29;20051;-91
2022/06/17 08:30:12;;;;;;;;;;;;;;;32.25;28.90;98825.38;4874270;29;20508;-89
2022/06/17 08:32:48;;;;;;;;;;;;;;;32.19;27.97;98835.59;4872496;29;20269;-85
2022/06/17 08:35:15;;;;;;;;;;;;;;;32.46;28.09;98826.19;4852535;29;19932;-87
2022/06/17 08:37:42;;;;;;;;;;;;;;;32.17;26.29;98830.34;4850831;29;19962;-87
2022/06/17 08:40:20;;;;;;;;;;;;;;;32.09;27.26;98819.03;4884132;29;19923;-90
2022/06/17 08:42:47;;;;;;;;;;;;;;;32.45;27.29;98819.00;4834930;29;19934;-86
2022/06/17 08:45:19;;;;;;;;;;;;;;;32.89;27.03;98816.44;4865306;29;20022;-88
2022/06/17 08:47:47;;;;;;;;;;;;;;;33.03;27.03;98808.41;4865374;29;19928;-84
2022/06/17 08:50:19;;;;;;;;;;;;;;;33.03;26.80;98809.22;4865352;29;19934;-89
2022/06/17 08:53:04;;;;;;;;;;;;;;;33.08;26.25;98809.19;4835115;29;20284;-92
2022/06/17 08:55:45;;;;;;;;;;;;;;;33.16;26.45;98805.00;4865180;29;20344;-89
2022/06/17 08:58:15;;;;;;;;;;;;;;;32.92;26.59;98807.56;4835504;29;19935;-90
2022/06/17 09:00:40;;;;;;;;;;;;;;;32.99;27.04;98801.78;4865453;29;19927;-90
2022/06/17 09:03:26;;;;;;;;;;;;;;;33.26;25.85;98804.13;4864765;29;20041;-86
2022/06/17 09:05:58;;;;;;;;;;;;;;;33.19;26.27;98800.84;4881646;29;20012;-85
2022/06/17 09:08:30;;;;;;;;;;;;;;;32.98;27.55;98798.16;4865037;29;19987;-84
2022/06/17 09:11:01;;;;;;;;;;;;;;;33.25;27.39;98794.16;4849780;29;19928;-85
2022/06/17 09:13:53;;;;;;;;;;;;;;;33.76;26.56;98800.25;4834446;29;20403;-86
2022/06/17 09:16:34;;;;;;;;;;;;;;;34.05;25.53;98794.81;4849391;29;20034;-85
2022/06/17 09:19:02;;;;;;;;;;;;;;;33.60;25.49;98794.00;4827538;29;20380;-84
2022/06/17 09:21:31;;;;;;;;;;;;;;;33.48;26.00;98785.22;4871792;29;19927;-84
2022/06/17 09:24:04;;;;;;;;;;;;;;;33.90;25.57;98780.22;4849188;29;19963;-84
2022/06/17 09:26:39;;;;;;;;;;;;;;;34.03;25.27;98785.94;4849460;29;19948;-84
2022/06/17 09:29:11;;;;;;;;;;;;;;;34.41;25.29;98777.00;4867843;29;20389;-84
2022/06/17 09:31:59;;;;;;;;;;;;;;;34.18;23.24;98773.88;4877073;29;20077;-85
2022/06/17 09:34:44;;;;;;;;;;;;;;;34.55;23.40;98778.81;4841548;29;19931;-83
2022/06/17 09:37:16;;;;;;;;;;;;;;;35.06;22.87;98771.06;4860340;29;19956;-84
2022/06/17 09:39:51;;;;;;;;;;;;;;;35.33;22.87;98768.44;4828531;29;19932;-87
2022/06/17 09:42:21;;;;;;;;;;;;;;;35.59;23.00;98774.50;4861460;29;19935;-85
2022/06/17 09:44:50;;;;;;;;;;;;;;;35.36;22.94;98762.31;4846085;29;19951;-85
2022/06/17 09:47:29;;;;;;;;;;;;;;;35.58;23.37;98760.88;4851182;29;19935;-85
2022/06/17 09:49:57;;;;;;;;;;;;;;;36.08;23.31;98764.03;4860225;29;20384;-84
2022/06/17 09:52:30;;;;;;;;;;;;;;;36.48;22.12;98756.91;4862176;29;20417;-86
2022/06/17 09:55:09;;;;;;;;;;;;;;;36.64;22.12;98758.28;4860202;29;20022;-85
2022/06/17 09:57:53;;;;;;;;;;;;;;;36.68;21.49;98755.69;4861434;29;19928;-84
2022/06/17 10:00:20;;;;;;;;;;;;;;;36.94;22.08;98751.28;4830003;29;19928;-84
2022/06/17 10:02:57;;;;;;;;;;;;;;;36.78;22.04;98741.53;4844403;29;19935;-83
2022/06/17 10:05:43;;;;;;;;;;;;;;;36.65;22.48;98745.16;4849378;29;19935;-81
2022/06/17 10:08:12;;;;;;;;;;;;;;;37.07;22.08;98744.03;4845627;29;20392;-83
2022/06/17 10:10:51;;;;;;;;;;;;;;;37.47;21.78;98737.91;4859265;29;19992;-84
2022/06/17 10:13:28;;;;;;;;;;;;;;;37.66;21.37;98741.34;4845014;29;20014;-84
2022/06/17 10:19:02;;;;;;;;;;;;;;;38.28;20.81;98740.63;4845554;29;19988;-84
2022/06/17 10:21:28;;;;;;;;;;;;;;;38.26;21.30;98738.16;4860459;29;19984;-85
2022/06/17 10:23:54;;;;;;;;;;;;;;;38.75;20.31;98727.06;4845262;29;19932;-86
2022/06/17 10:26:40;;;;;;;;;;;;;;;38.86;20.04;98726.47;4861179;29;19928;-84
2022/06/17 10:29:11;;;;;;;;;;;;;;;38.74;19.86;98726.25;4833288;29;19983;-84
2022/06/17 10:31:39;;;;;;;;;;;;;;;38.86;19.13;98722.84;4859123;29;19928;-85
2022/06/17 10:34:25;;;;;;;;;;;;;;;39.06;18.73;98722.22;4860374;29;19932;-85
2022/06/17 10:36:54;;;;;;;;;;;;;;;39.46;18.66;98712.94;4826299;29;19935;-84
2022/06/17 10:39:24;;;;;;;;;;;;;;;39.65;18.52;98715.41;4842142;29;19932;-86
2022/06/17 10:41:50;;;;;;;;;;;;;;;39.49;18.58;98709.47;4826748;29;19980;-84
2022/06/17 10:44:18;;;;;;;;;;;;;;;39.62;18.18;98705.69;4856661;29;19935;-84
2022/06/17 10:46:54;;;;;;;;;;;;;;;39.47;18.52;98695.00;4842106;29;19928;-82
2022/06/17 10:49:23;;;;;;;;;;;;;;;39.76;18.32;98689.56;4842087;29;20460;-83
2022/06/17 10:51:50;;;;;;;;;;;;;;;40.18;18.09;98698.22;4826322;29;20353;-83
2022/06/17 10:54:31;;;;;;;;;;;;;;;40.05;17.80;98699.22;4856452;29;19928;-83
2022/06/17 10:57:11;;;;;;;;;;;;;;;40.12;17.15;98685.56;4856809;29;19929;-83
2022/06/17 10:59:39;;;;;;;;;;;;;;;40.06;17.57;98681.28;4826546;29;20404;-82
2022/06/17 11:02:25;;;;;;;;;;;;;;;40.04;16.82;98683.59;4842539;29;20027;-84
2022/06/17 11:04:51;;;;;;;;;;;;;;;40.63;16.71;98678.13;4840990;29;19932;-83
2022/06/17 11:07:30;;;;;;;;;;;;;;;40.69;16.60;98676.75;4856870;29;20388;-84
2022/06/17 11:09:57;;;;;;;;;;;;;;;41.16;16.59;98667.44;4826709;29;19932;-84
2022/06/17 11:12:27;;;;;;;;;;;;;;;41.53;15.86;98659.19;4825905;29;19978;-83
2022/06/17 11:14:55;;;;;;;;;;;;;;;41.86;16.17;98662.03;4826204;29;19929;-83
2022/06/17 11:17:27;;;;;;;;;;;;;;;42.06;15.36;98661.16;4826067;29;19929;-83
2022/06/17 11:19:57;;;;;;;;;;;;;;;41.93;15.63;98651.06;4841448;29;20444;-84
2022/06/17 11:22:29;;;;;;;;;;;;;;;42.10;14.90;98650.06;4825877;29;19928;-83
2022/06/17 11:24:56;;;;;;;;;;;;;;;42.22;14.90;98647.25;4827790;29;20088;-83
2022/06/17 11:27:26;;;;;;;;;;;;;;;42.51;14.31;98640.63;4859419;29;20023;-84
2022/06/17 11:29:53;;;;;;;;;;;;;;;42.28;14.79;98631.00;4829014;29;20019;-85
2022/06/17 11:32:18;;;;;;;;;;;;;;;42.89;14.16;98631.81;4860981;29;19928;-81
2022/06/17 11:35:09;;;;;;;;;;;;;;;43.22;14.16;98632.81;4861357;29;19939;-81
2022/06/17 11:37:35;;;;;;;;;;;;;;;43.49;14.15;98622.78;4824016;29;20018;-86
2022/06/17 11:40:19;;;;;;;;;;;;;;;42.70;14.53;98616.75;4844886;29;19956;-81
2022/06/17 11:43:14;;;;;;;;;;;;;;;42.12;15.66;98614.81;4843823;29;19928;-80
2022/06/17 11:45:41;;;;;;;;;;;;;;;42.44;14.61;98603.88;4841944;29;19935;-80
2022/06/17 11:48:10;;;;;;;;;;;;;;;42.89;14.72;98614.97;4860854;29;19928;-81
2022/06/17 11:50:40;;;;;;;;;;;;;;;43.27;14.29;98612.88;4843958;29;19928;-80
2022/06/17 11:53:13;;;;;;;;;;;;;;;43.25;14.35;98603.97;4861213;29;19928;-80
2022/06/17 11:55:46;;;;;;;;;;;;;;;43.54;13.72;98606.44;4829046;29;19967;-83
2022/06/17 11:58:13;;;;;;;;;;;;;;;43.36;14.36;98605.09;4829466;29;20460;-82
2022/06/17 12:00:46;;;;;;;;;;;;;;;43.66;13.70;98604.75;4860222;29;20018;-83
2022/06/17 12:03:15;;;;;;;;;;;;;;;44.10;13.79;98600.72;4860487;29;19939;-82
2022/06/17 12:05:41;;;;;;;;;;;;;;;44.17;13.69;98610.53;4843792;29;19936;-87
2022/06/17 12:08:24;;;;;;;;;;;;;;;44.22;13.95;98607.44;4828488;29;19928;-82
2022/06/17 12:10:51;;;;;;;;;;;;;;;44.15;13.69;98607.25;4874124;29;20486;-82
2022/06/17 12:13:19;;;;;;;;;;;;;;;44.14;13.30;98605.63;4859120;29;20046;-83
2022/06/17 12:15:48;;;;;;;;;;;;;;;44.25;13.82;98595.44;4858276;29;19935;-81
2022/06/17 12:18:20;;;;;;;;;;;;;;;44.21;14.07;98594.53;4862836;29;20418;-82
2022/06/17 12:20:58;;;;;;;;;;;;;;;44.72;13.35;98584.13;4863509;29;19976;-81
2022/06/17 12:23:45;;;;;;;;;;;;;;;45.09;12.99;98589.38;4862537;29;19928;-81
2022/06/17 12:26:12;;;;;;;;;;;;;;;44.62;14.09;98590.31;4856188;29;19928;-82
2022/06/17 12:28:51;;;;;;;;;;;;;;;45.17;13.57;98588.34;4862561;29;19928;-85
2022/06/17 12:31:36;;;;;;;;;;;;;;;45.58;12.99;98576.66;4846103;29;20384;-81
2022/06/17 12:34:10;;;;;;;;;;;;;;;45.80;12.94;98584.34;4830928;29;20397;-84
2022/06/17 12:36:48;;;;;;;;;;;;;;;45.20;12.97;98579.13;4876637;29;19928;-83
2022/06/17 12:39:34;;;;;;;;;;;;;;;45.20;13.23;98561.38;4880969;29;20720;-82
2022/06/17 12:42:00;;;;;;;;;;;;;;;46.08;12.48;98569.94;4880904;29;20448;-82
2022/06/17 12:44:38;;;;;;;;;;;;;;;46.28;12.40;98565.03;4864723;29;20406;-81
2022/06/17 12:47:07;;;;;;;;;;;;;;;46.15;12.92;98563.56;4880016;29;19963;-81
2022/06/17 12:55:11;;;;;;;;;;;;;;;46.50;12.50;98558.50;4897693;29;19927;-81
2022/06/17 12:57:47;;;;;;;;;;;;;;;46.72;12.38;98551.16;4881958;29;19927;-83
2022/06/17 13:00:25;;;;;;;;;;;;;;;46.73;12.83;98543.50;4866450;29;19927;-82
2022/06/17 13:02:54;;;;;;;;;;;;;;;46.06;13.03;98546.06;4881972;29;20514;-81
2022/06/17 13:05:26;;;;;;;;;;;;;;;46.10;13.05;98541.28;4896319;29;20391;-82
2022/06/17 13:08:14;;;;;;;;;;;;;;;45.79;13.22;98543.19;4897297;29;19962;-80
2022/06/17 13:10:49;;;;;;;;;;;;;;;46.08;12.83;98538.00;4881006;29;20423;-81
2022/06/17 13:13:32;;;;;;;;;;;;;;;46.19;13.12;98539.00;4880960;29;20022;-82
2022/06/17 13:16:02;;;;;;;;;;;;;;;45.83;13.09;98527.13;4897197;29;20062;-85
2022/06/17 13:18:28;;;;;;;;;;;;;;;45.80;13.75;98522.22;4866214;29;19927;-82
2022/06/17 13:21:17;;;;;;;;;;;;;;;45.15;13.94;98530.69;4881968;29;19927;-85
2022/06/17 13:24:08;;;;;;;;;;;;;;;44.90;13.65;98536.56;4880494;29;19927;-83
2022/06/17 13:26:42;;;;;;;;;;;;;;;43.21;14.73;98533.53;4850741;29;19970;-84
2022/06/17 13:29:14;;;;;;;;;;;;;;;41.76;16.14;98533.38;4849239;29;19928;-84
2022/06/17 13:31:49;;;;;;;;;;;;;;;40.56;17.17;98531.34;4864176;29;19928;-83